Time;durP1;ratioP1;P1;durP2;ratioP2;P2;SDS_P1;SDS_P2;PMS_P1;PMS_P2;Temp;Humidity;BMP_temperature;BMP_pressure;BME280_temperature;BME280_humidity;BME280_pressure;Samples;Min_cycle;Max_cycle;Signal;HPM_P1;HPM_P2
2021/07/02 00:02:05;;;;;;;;;;;;;;;;;;4988050;28;19918;-47
2021/07/02 00:04:30;;;;;;;;;;;;;;;;;;4984168;28;19957;-49
2021/07/02 00:06:55;;;;;;;;;;;;;;;;;;4984615;28;20554;-48
2021/07/02 00:09:20;;;;;;;;;;;;;;;;;;4988248;28;19917;-48
2021/07/02 00:11:45;;;;;;;;;;;;;;;;;;4988834;28;20004;-47
2021/07/02 00:14:10;;;;;;;;;;;;;;;;;;4988825;28;19941;-47
2021/07/02 00:16:35;;;;;;;;;;;;;;;;;;4985240;28;19937;-47
2021/07/02 00:19:00;;;;;;;;;;;;;;;;;;4984044;28;19997;-46
2021/07/02 00:21:26;;;;;;;;;;;;;;;;;;5017950;22;19964;-86
2021/07/02 00:23:51;;;;;;;;;;;;;;;;;;4970261;28;19925;-87
2021/07/02 00:26:16;;;;;;;;;;;;;;;;;;4978067;28;20000;-86
2021/07/02 00:28:41;;;;;;;;;;;;;;;;;;4987910;28;19924;-87
2021/07/02 00:31:06;;;;;;;;;;;;;;;;;;4990871;28;19945;-87
2021/07/02 00:33:31;;;;;;;;;;;;;;;;;;4988847;28;19922;-87
2021/07/02 00:35:56;;;;;;;;;;;;;;;;;;4994888;28;19910;-87
2021/07/02 00:38:21;;;;;;;;;;;;;;;;;;4994296;28;19921;-87
2021/07/02 00:40:46;;;;;;;;;;;;;;;;;;4993414;28;19917;-86
2021/07/02 00:43:11;;;;;;;;;;;;;;;;;;4992595;28;19918;-87
2021/07/02 00:45:37;;;;;;;;;;;;;;;;;;4994058;28;19910;-86
2021/07/02 00:48:02;;;;;;;;;;;;;;;;;;4992808;28;19924;-86
2021/07/02 00:50:27;;;;;;;;;;;;;;;;;;4993732;28;19917;-86
2021/07/02 00:52:52;;;;;;;;;;;;;;;;;;4991359;28;19920;-86
2021/07/02 00:55:17;;;;;;;;;;;;;;;;;;4993730;28;19910;-86
2021/07/02 00:57:42;;;;;;;;;;;;;;;;;;4990556;28;19922;-86
2021/07/02 01:00:07;;;;;;;;;;;;;;;;;;4992607;28;19920;-86
2021/07/02 01:02:32;;;;;;;;;;;;;;;;;;4993046;28;19914;-86
2021/07/02 01:04:57;;;;;;;;;;;;;;;;;;4992711;28;19921;-86
2021/07/02 01:07:22;;;;;;;;;;;;;;;;;;4993323;28;19921;-87
2021/07/02 01:09:48;;;;;;;;;;;;;;;;;;4995564;28;20278;-87
2021/07/02 01:12:13;;;;;;;;;;;;;;;;;;4993528;28;20410;-86
2021/07/02 01:14:38;;;;;;;;;;;;;;;;;;4995535;28;20362;-85
2021/07/02 01:17:03;;;;;;;;;;;;;;;;;;4995457;28;19941;-87
2021/07/02 01:19:28;;;;;;;;;;;;;;;;;;4995069;28;19918;-87
2021/07/02 01:21:54;;;;;;;;;;;;;;;;;;4991996;28;20402;-86
2021/07/02 01:24:20;;;;;;;;;;;;;;;;;;4992584;28;20441;-87
2021/07/02 01:26:45;;;;;;;;;;;;;;;;;;4991817;28;19918;-87
2021/07/02 01:29:10;;;;;;;;;;;;;;;;;;4995145;28;19910;-87
2021/07/02 01:31:35;;;;;;;;;;;;;;;;;;4992679;28;19925;-87
2021/07/02 01:34:00;;;;;;;;;;;;;;;;;;4993286;28;19918;-87
2021/07/02 01:36:25;;;;;;;;;;;;;;;;;;4994288;28;19914;-87
2021/07/02 01:38:51;;;;;;;;;;;;;;;;;;4994842;28;19920;-87
2021/07/02 01:41:16;;;;;;;;;;;;;;;;;;4992040;28;19921;-87
2021/07/02 01:43:41;;;;;;;;;;;;;;;;;;4995330;28;19910;-87
2021/07/02 01:46:06;;;;;;;;;;;;;;;;;;4994024;28;19952;-87
2021/07/02 01:48:31;;;;;;;;;;;;;;;;;;4994597;28;20009;-87
2021/07/02 01:50:56;;;;;;;;;;;;;;;;;;4994457;28;19921;-87
2021/07/02 01:53:21;;;;;;;;;;;;;;;;;;4996570;28;19914;-87
2021/07/02 01:55:46;;;;;;;;;;;;;;;;;;4992688;28;20268;-87
2021/07/02 01:58:11;;;;;;;;;;;;;;;;;;4991269;28;20433;-87
2021/07/02 02:00:36;;;;;;;;;;;;;;;;;;4992421;28;20366;-87
2021/07/02 02:03:02;;;;;;;;;;;;;;;;;;4995188;28;19928;-87
2021/07/02 02:05:27;;;;;;;;;;;;;;;;;;4993588;28;19922;-87
2021/07/02 02:07:52;;;;;;;;;;;;;;;;;;4991520;28;19922;-87
2021/07/02 02:10:17;;;;;;;;;;;;;;;;;;4992338;28;19918;-86
2021/07/02 02:12:42;;;;;;;;;;;;;;;;;;4993202;28;19965;-87
2021/07/02 02:15:07;;;;;;;;;;;;;;;;;;4994196;28;19920;-87
2021/07/02 02:17:32;;;;;;;;;;;;;;;;;;4992079;28;19957;-87
2021/07/02 02:19:57;;;;;;;;;;;;;;;;;;4993010;28;19914;-88
2021/07/02 02:22:22;;;;;;;;;;;;;;;;;;4994227;28;19918;-88
2021/07/02 02:24:47;;;;;;;;;;;;;;;;;;4992631;28;20313;-87
2021/07/02 02:27:13;;;;;;;;;;;;;;;;;;4993605;28;19914;-87
2021/07/02 02:29:38;;;;;;;;;;;;;;;;;;4992544;28;19917;-87
2021/07/02 02:32:03;;;;;;;;;;;;;;;;;;4989775;28;19914;-87
2021/07/02 02:34:28;;;;;;;;;;;;;;;;;;4992444;28;19918;-87
2021/07/02 02:36:53;;;;;;;;;;;;;;;;;;4992274;28;19960;-87
2021/07/02 02:39:18;;;;;;;;;;;;;;;;;;4992976;28;19917;-87
2021/07/02 02:41:43;;;;;;;;;;;;;;;;;;4991051;28;20286;-87
2021/07/02 02:44:08;;;;;;;;;;;;;;;;;;4995600;28;19913;-87
2021/07/02 02:46:33;;;;;;;;;;;;;;;;;;4993320;28;19909;-87
2021/07/02 02:48:59;;;;;;;;;;;;;;;;;;4991872;28;19914;-88
2021/07/02 02:51:24;;;;;;;;;;;;;;;;;;4993072;28;19932;-87
2021/07/02 02:53:49;;;;;;;;;;;;;;;;;;4992245;28;19960;-87
2021/07/02 02:56:14;;;;;;;;;;;;;;;;;;4992609;28;19925;-87
2021/07/02 02:58:39;;;;;;;;;;;;;;;;;;4991030;28;20023;-87
2021/07/02 03:01:04;;;;;;;;;;;;;;;;;;4991184;28;19924;-86
2021/07/02 03:03:29;;;;;;;;;;;;;;;;;;4992549;28;19924;-87
2021/07/02 03:05:54;;;;;;;;;;;;;;;;;;4990846;28;19918;-87
2021/07/02 03:08:19;;;;;;;;;;;;;;;;;;4995545;28;19960;-87
2021/07/02 03:10:44;;;;;;;;;;;;;;;;;;4994042;28;20009;-87
2021/07/02 03:13:10;;;;;;;;;;;;;;;;;;4996179;28;19945;-86
2021/07/02 03:15:35;;;;;;;;;;;;;;;;;;4990707;28;19924;-87
2021/07/02 03:18:00;;;;;;;;;;;;;;;;;;4989642;28;19914;-87
2021/07/02 03:20:25;;;;;;;;;;;;;;;;;;4993176;28;19929;-87
2021/07/02 03:22:50;;;;;;;;;;;;;;;;;;4995204;28;19929;-87
2021/07/02 03:25:15;;;;;;;;;;;;;;;;;;4993221;28;19920;-87
2021/07/02 03:27:40;;;;;;;;;;;;;;;;;;4991903;28;20352;-86
2021/07/02 03:30:05;;;;;;;;;;;;;;;;;;4992341;28;19918;-87
2021/07/02 03:32:31;;;;;;;;;;;;;;;;;;4991180;28;19910;-86
2021/07/02 03:34:56;;;;;;;;;;;;;;;;;;4991100;28;20439;-87
2021/07/02 03:37:21;;;;;;;;;;;;;;;;;;4995320;28;20432;-87
2021/07/02 03:39:46;;;;;;;;;;;;;;;;;;4992807;28;19975;-86
2021/07/02 03:42:11;;;;;;;;;;;;;;;;;;4994255;28;19914;-87
2021/07/02 03:44:36;;;;;;;;;;;;;;;;;;4991081;28;20516;-86
2021/07/02 03:47:01;;;;;;;;;;;;;;;;;;4992750;28;19918;-86
2021/07/02 03:49:26;;;;;;;;;;;;;;;;;;4991943;28;19922;-87
2021/07/02 03:51:51;;;;;;;;;;;;;;;;;;4990940;28;20123;-86
2021/07/02 03:54:17;;;;;;;;;;;;;;;;;;4988252;28;19917;-86
2021/07/02 03:57:10;;;;;;;;;;;;;;;;;;4989409;28;19922;-87
2021/07/02 03:59:27;;;;;;;;;;;;;;;;;;4992522;28;19981;-86
2021/07/02 04:01:52;;;;;;;;;;;;;;;;;;4993323;28;20390;-87
2021/07/02 04:04:17;;;;;;;;;;;;;;;;;;4991701;28;19925;-87
2021/07/02 04:06:42;;;;;;;;;;;;;;;;;;4991609;28;19922;-87
2021/07/02 04:09:07;;;;;;;;;;;;;;;;;;4991785;28;19914;-86
2021/07/02 04:11:32;;;;;;;;;;;;;;;;;;4994847;28;19913;-87
2021/07/02 04:13:57;;;;;;;;;;;;;;;;;;4990533;28;20055;-86
2021/07/02 04:16:22;;;;;;;;;;;;;;;;;;4993552;28;19914;-87
2021/07/02 04:18:48;;;;;;;;;;;;;;;;;;4991756;28;19914;-87
2021/07/02 04:21:13;;;;;;;;;;;;;;;;;;4991661;28;21167;-87
2021/07/02 04:23:38;;;;;;;;;;;;;;;;;;4992196;28;19918;-87
2021/07/02 04:26:03;;;;;;;;;;;;;;;;;;4992307;28;19941;-87
2021/07/02 04:28:28;;;;;;;;;;;;;;;;;;4989651;28;19918;-87
2021/07/02 04:30:53;;;;;;;;;;;;;;;;;;4992318;28;19952;-87
2021/07/02 04:33:18;;;;;;;;;;;;;;;;;;4988474;28;19941;-87
2021/07/02 04:35:43;;;;;;;;;;;;;;;;;;4990837;28;19953;-87
2021/07/02 04:38:09;;;;;;;;;;;;;;;;;;4988676;28;19914;-87
2021/07/02 04:40:34;;;;;;;;;;;;;;;;;;4992916;28;19910;-87
2021/07/02 04:42:59;;;;;;;;;;;;;;;;;;4988623;28;20352;-87
2021/07/02 04:45:24;;;;;;;;;;;;;;;;;;4992515;28;19910;-87
2021/07/02 04:47:49;;;;;;;;;;;;;;;;;;4989857;28;19925;-87
2021/07/02 04:50:14;;;;;;;;;;;;;;;;;;4992000;28;19921;-87
2021/07/02 04:52:39;;;;;;;;;;;;;;;;;;4990416;28;19914;-87
2021/07/02 04:55:07;;;;;;;;;;;;;;;;;;4990618;28;19925;-87
2021/07/02 04:57:33;;;;;;;;;;;;;;;;;;4990403;28;19918;-87
2021/07/02 05:00:01;;;;;;;;;;;;;;;;;;4991050;28;19960;-86
2021/07/02 05:02:26;;;;;;;;;;;;;;;;;;4993477;28;19928;-87
2021/07/02 05:04:52;;;;;;;;;;;;;;;;;;4988979;28;20509;-87
2021/07/02 05:07:17;;;;;;;;;;;;;;;;;;4984577;28;19921;-87
2021/07/02 05:09:42;;;;;;;;;;;;;;;;;;4987891;28;19924;-87
2021/07/02 05:12:07;;;;;;;;;;;;;;;;;;4988207;28;20314;-87
2021/07/02 05:14:32;;;;;;;;;;;;;;;;;;4991586;28;20716;-87
2021/07/02 05:16:59;;;;;;;;;;;;;;;;;;4987480;28;19975;-87
2021/07/02 05:19:25;;;;;;;;;;;;;;;;;;4991443;28;20320;-88
2021/07/02 05:21:50;;;;;;;;;;;;;;;;;;4992185;28;19926;-88
2021/07/02 05:24:15;;;;;;;;;;;;;;;;;;4997355;28;19910;-87
2021/07/02 05:26:40;;;;;;;;;;;;;;;;;;4993583;28;19941;-88
2021/07/02 05:29:05;;;;;;;;;;;;;;;;;;4994453;28;20370;-87
2021/07/02 05:31:30;;;;;;;;;;;;;;;;;;4993642;28;19910;-87
2021/07/02 05:33:55;;;;;;;;;;;;;;;;;;4993178;28;19918;-86
2021/07/02 05:36:20;;;;;;;;;;;;;;;;;;4992766;28;19972;-87
2021/07/02 05:38:45;;;;;;;;;;;;;;;;;;4996454;28;19910;-87
2021/07/02 05:41:12;;;;;;;;;;;;;;;;;;4993462;28;20458;-86
2021/07/02 05:43:37;;;;;;;;;;;;;;;;;;4994329;28;19914;-87
2021/07/02 05:46:02;;;;;;;;;;;;;;;;;;4995907;28;20552;-87
2021/07/02 05:48:29;;;;;;;;;;;;;;;;;;4993388;28;19921;-86
2021/07/02 05:50:54;;;;;;;;;;;;;;;;;;4995326;28;19914;-86
2021/07/02 05:53:19;;;;;;;;;;;;;;;;;;4995819;28;20477;-87
2021/07/02 05:55:44;;;;;;;;;;;;;;;;;;4996488;28;19910;-87
2021/07/02 05:58:09;;;;;;;;;;;;;;;;;;4995142;28;19920;-87
2021/07/02 06:00:34;;;;;;;;;;;;;;;;;;4996269;28;20378;-87
2021/07/02 06:03:00;;;;;;;;;;;;;;;;;;4994249;28;20318;-86
2021/07/02 06:05:25;;;;;;;;;;;;;;;;;;4995394;28;19917;-86
2021/07/02 06:07:50;;;;;;;;;;;;;;;;;;4996067;28;19914;-87
2021/07/02 06:10:16;;;;;;;;;;;;;;;;;;4993561;28;19917;-87
2021/07/02 06:12:41;;;;;;;;;;;;;;;;;;4994046;28;19910;-87
2021/07/02 06:15:06;;;;;;;;;;;;;;;;;;4994375;28;19921;-87
2021/07/02 06:17:31;;;;;;;;;;;;;;;;;;4994243;28;19909;-86
2021/07/02 06:19:56;;;;;;;;;;;;;;;;;;4994409;28;19918;-87
2021/07/02 06:22:21;;;;;;;;;;;;;;;;;;4996419;28;19922;-87
2021/07/02 06:24:46;;;;;;;;;;;;;;;;;;4991940;28;19910;-88
2021/07/02 06:27:11;;;;;;;;;;;;;;;;;;4992550;28;20361;-87
2021/07/02 06:29:36;;;;;;;;;;;;;;;;;;4990828;28;20004;-87
2021/07/02 06:32:02;;;;;;;;;;;;;;;;;;4997261;28;19909;-87
2021/07/02 06:34:27;;;;;;;;;;;;;;;;;;4993710;28;19971;-86
2021/07/02 06:36:52;;;;;;;;;;;;;;;;;;5012147;28;19918;-80
2021/07/02 06:39:17;;;;;;;;;;;;;;;;;;5012163;28;19925;-85
2021/07/02 06:41:42;;;;;;;;;;;;;;;;;;4998871;28;19925;-85
2021/07/02 06:44:07;;;;;;;;;;;;;;;;;;4989444;28;19914;-87
2021/07/02 06:46:33;;;;;;;;;;;;;;;;;;4988931;28;19918;-85
2021/07/02 06:48:58;;;;;;;;;;;;;;;;;;4988932;28;19921;-86
2021/07/02 06:51:23;;;;;;;;;;;;;;;;;;4991089;28;19926;-87
2021/07/02 06:53:51;;;;;;;;;;;;;;;;;;4990657;28;19936;-86
2021/07/02 06:56:16;;;;;;;;;;;;;;;;;;4989875;28;19917;-85
2021/07/02 06:58:41;;;;;;;;;;;;;;;;;;4990744;28;19910;-86
2021/07/02 07:01:06;;;;;;;;;;;;;;;;;;4990501;28;19913;-86
2021/07/02 07:03:31;;;;;;;;;;;;;;;;;;4989175;28;19913;-85
2021/07/02 07:05:57;;;;;;;;;;;;;;;;;;4989650;28;20348;-86
2021/07/02 07:08:22;;;;;;;;;;;;;;;;;;4991981;28;19925;-87
2021/07/02 07:10:47;;;;;;;;;;;;;;;;;;4991496;28;19920;-86
2021/07/02 07:13:13;;;;;;;;;;;;;;;;;;4992594;28;19918;-87
2021/07/02 07:15:38;;;;;;;;;;;;;;;;;;4989636;28;19928;-86
2021/07/02 07:18:03;;;;;;;;;;;;;;;;;;4989617;28;19937;-87
2021/07/02 07:20:28;;;;;;;;;;;;;;;;;;4990262;28;19953;-87
2021/07/02 07:22:53;;;;;;;;;;;;;;;;;;4992317;28;19916;-87
2021/07/02 07:25:21;;;;;;;;;;;;;;;;;;4986447;28;19910;-85
2021/07/02 07:27:46;;;;;;;;;;;;;;;;;;4985681;28;19957;-85
2021/07/02 07:30:11;;;;;;;;;;;;;;;;;;4985768;28;19967;-85
2021/07/02 07:32:38;;;;;;;;;;;;;;;;;;4990149;28;19928;-85
2021/07/02 07:35:06;;;;;;;;;;;;;;;;;;4986109;28;19918;-85
2021/07/02 07:37:34;;;;;;;;;;;;;;;;;;4985328;28;19925;-85
2021/07/02 07:39:59;;;;;;;;;;;;;;;;;;4983527;28;19910;-84
2021/07/02 07:42:24;;;;;;;;;;;;;;;;;;4989262;28;19910;-85
2021/07/02 07:44:50;;;;;;;;;;;;;;;;;;4986878;28;20279;-85
2021/07/02 07:47:15;;;;;;;;;;;;;;;;;;4988907;28;19953;-85
2021/07/02 07:49:43;;;;;;;;;;;;;;;;;;4989218;28;20360;-85
2021/07/02 07:54:36;;;;;;;;;;;;;;;;;;4989377;28;19925;-86
2021/07/02 07:57:01;;;;;;;;;;;;;;;;;;4990507;28;19910;-85
2021/07/02 07:59:27;;;;;;;;;;;;;;;;;;4990229;28;19921;-86
2021/07/02 08:01:53;;;;;;;;;;;;;;;;;;4987121;28;19941;-85
2021/07/02 08:04:18;;;;;;;;;;;;;;;;;;4988705;28;20004;-85
2021/07/02 08:06:43;;;;;;;;;;;;;;;;;;4990577;28;20001;-85
2021/07/02 08:09:08;;;;;;;;;;;;;;;;;;4990535;28;19922;-85
2021/07/02 08:11:33;;;;;;;;;;;;;;;;;;4991099;28;19948;-85
2021/07/02 08:13:58;;;;;;;;;;;;;;;;;;4989926;28;19971;-85
2021/07/02 08:16:23;;;;;;;;;;;;;;;;;;4988277;28;19918;-85
2021/07/02 08:18:48;;;;;;;;;;;;;;;;;;4980404;28;19915;-85
2021/07/02 08:21:13;;;;;;;;;;;;;;;;;;4986860;28;19933;-85
2021/07/02 08:23:38;;;;;;;;;;;;;;;;;;4990405;28;20338;-85
2021/07/02 08:26:04;;;;;;;;;;;;;;;;;;4989807;28;19936;-85
2021/07/02 08:31:13;;;;;;;;;;;;;;;;;;4989758;28;19976;-85
2021/07/02 08:33:38;;;;;;;;;;;;;;;;;;4990333;28;19918;-85
2021/07/02 08:36:03;;;;;;;;;;;;;;;;;;4990222;28;19921;-85
2021/07/02 08:38:28;;;;;;;;;;;;;;;;;;4990365;28;20278;-85
2021/07/02 08:40:53;;;;;;;;;;;;;;;;;;4989244;28;19924;-85
2021/07/02 08:43:18;;;;;;;;;;;;;;;;;;4990093;28;19918;-85
2021/07/02 08:45:43;;;;;;;;;;;;;;;;;;4989852;28;19910;-85
2021/07/02 08:48:08;;;;;;;;;;;;;;;;;;4985977;28;19921;-85
2021/07/02 08:50:33;;;;;;;;;;;;;;;;;;4990524;28;19969;-85
2021/07/02 08:52:58;;;;;;;;;;;;;;;;;;4985860;28;19918;-85
2021/07/02 08:55:24;;;;;;;;;;;;;;;;;;4989669;28;19918;-85
2021/07/02 08:57:49;;;;;;;;;;;;;;;;;;4993667;28;20368;-85
2021/07/02 09:00:17;;;;;;;;;;;;;;;;;;4994201;28;19910;-86
2021/07/02 09:02:42;;;;;;;;;;;;;;;;;;4992480;28;19910;-85
2021/07/02 09:05:07;;;;;;;;;;;;;;;;;;4992125;28;19965;-85
2021/07/02 09:07:32;;;;;;;;;;;;;;;;;;4990650;28;19956;-85
2021/07/02 09:09:57;;;;;;;;;;;;;;;;;;4992994;28;20779;-85
2021/07/02 09:12:23;;;;;;;;;;;;;;;;;;4993115;28;19921;-85
2021/07/02 09:14:48;;;;;;;;;;;;;;;;;;4992612;28;20400;-85
2021/07/02 09:17:13;;;;;;;;;;;;;;;;;;4992846;28;19945;-85
2021/07/02 09:19:38;;;;;;;;;;;;;;;;;;4992240;28;19914;-85
2021/07/02 09:22:03;;;;;;;;;;;;;;;;;;4992738;28;20020;-85
2021/07/02 09:24:28;;;;;;;;;;;;;;;;;;4990316;28;19914;-85
2021/07/02 09:26:53;;;;;;;;;;;;;;;;;;4993152;28;20004;-85
2021/07/02 09:29:21;;;;;;;;;;;;;;;;;;4992661;28;19956;-85
2021/07/02 09:31:47;;;;;;;;;;;;;;;;;;4991289;28;19917;-85
2021/07/02 09:34:12;;;;;;;;;;;;;;;;;;4988819;28;19929;-85
2021/07/02 09:36:37;;;;;;;;;;;;;;;;;;4993713;28;19918;-85
2021/07/02 09:39:02;;;;;;;;;;;;;;;;;;4991381;28;19924;-85
2021/07/02 09:41:27;;;;;;;;;;;;;;;;;;4990865;28;19913;-86
2021/07/02 09:43:56;;;;;;;;;;;;;;;;;;4987901;28;20330;-86
2021/07/02 09:46:22;;;;;;;;;;;;;;;;;;4991462;28;19917;-85
2021/07/02 09:48:47;;;;;;;;;;;;;;;;;;4993121;28;19914;-85
2021/07/02 09:51:13;;;;;;;;;;;;;;;;;;4993260;28;19921;-86
2021/07/02 09:53:40;;;;;;;;;;;;;;;;;;4992364;28;19964;-86
2021/07/02 09:56:05;;;;;;;;;;;;;;;;;;4992970;28;20329;-86
2021/07/02 09:58:30;;;;;;;;;;;;;;;;;;4993507;28;20075;-85
2021/07/02 10:00:55;;;;;;;;;;;;;;;;;;4992756;28;20436;-85
2021/07/02 10:03:21;;;;;;;;;;;;;;;;;;4986737;28;19961;-86
2021/07/02 10:05:46;;;;;;;;;;;;;;;;;;4990056;28;19997;-86
2021/07/02 10:08:11;;;;;;;;;;;;;;;;;;4991107;28;19918;-85
2021/07/02 10:10:36;;;;;;;;;;;;;;;;;;4992495;28;19914;-85
2021/07/02 10:13:01;;;;;;;;;;;;;;;;;;4992032;28;19910;-85
2021/07/02 10:15:26;;;;;;;;;;;;;;;;;;4988407;28;19921;-85
2021/07/02 10:17:51;;;;;;;;;;;;;;;;;;4991093;28;20269;-86
2021/07/02 10:20:16;;;;;;;;;;;;;;;;;;4991209;28;20116;-85
2021/07/02 10:22:42;;;;;;;;;;;;;;;;;;4992640;28;19914;-85
2021/07/02 10:25:07;;;;;;;;;;;;;;;;;;4991528;28;20032;-86
2021/07/02 10:27:32;;;;;;;;;;;;;;;;;;4992102;28;19910;-85
2021/07/02 10:29:57;;;;;;;;;;;;;;;;;;4991496;28;20279;-85
2021/07/02 10:32:22;;;;;;;;;;;;;;;;;;4992294;28;19992;-85
2021/07/02 10:34:47;;;;;;;;;;;;;;;;;;4991597;28;19917;-85
2021/07/02 10:37:12;;;;;;;;;;;;;;;;;;4992665;28;19957;-85
2021/07/02 10:39:40;;;;;;;;;;;;;;;;;;4991620;28;19921;-85
2021/07/02 10:42:05;;;;;;;;;;;;;;;;;;4991497;28;20286;-85
2021/07/02 10:44:30;;;;;;;;;;;;;;;;;;4984773;28;20247;-85
2021/07/02 10:46:55;;;;;;;;;;;;;;;;;;4991991;28;19909;-85
2021/07/02 10:49:20;;;;;;;;;;;;;;;;;;4991053;28;20397;-85
2021/07/02 10:51:45;;;;;;;;;;;;;;;;;;4992280;28;19917;-85
2021/07/02 10:54:11;;;;;;;;;;;;;;;;;;4990805;28;19925;-85
2021/07/02 10:56:37;;;;;;;;;;;;;;;;;;4990974;28;19910;-85
2021/07/02 10:59:02;;;;;;;;;;;;;;;;;;4990505;28;19949;-85
2021/07/02 11:01:31;;;;;;;;;;;;;;;;;;4991382;28;20323;-85
2021/07/02 11:03:56;;;;;;;;;;;;;;;;;;4989115;28;19929;-85
2021/07/02 11:06:21;;;;;;;;;;;;;;;;;;4987853;28;19910;-85
2021/07/02 11:08:46;;;;;;;;;;;;;;;;;;4990006;28;19996;-85
2021/07/02 11:11:11;;;;;;;;;;;;;;;;;;4991478;28;19917;-86
2021/07/02 11:13:36;;;;;;;;;;;;;;;;;;4990504;28;20289;-86
2021/07/02 11:16:01;;;;;;;;;;;;;;;;;;4989752;28;20164;-86
2021/07/02 11:18:26;;;;;;;;;;;;;;;;;;4988434;28;19914;-85
2021/07/02 11:20:51;;;;;;;;;;;;;;;;;;4991319;28;19964;-86
2021/07/02 11:23:16;;;;;;;;;;;;;;;;;;4990674;28;20037;-85
2021/07/02 11:25:56;;;;;;;;;;;;;;;;;;4991057;28;19914;-85
2021/07/02 11:28:22;;;;;;;;;;;;;;;;;;4990497;28;19914;-83
2021/07/02 11:30:48;;;;;;;;;;;;;;;;;;4990654;28;19983;-85
2021/07/02 11:33:13;;;;;;;;;;;;;;;;;;4990322;28;19926;-85
2021/07/02 11:35:38;;;;;;;;;;;;;;;;;;4990682;28;19948;-85
2021/07/02 11:38:07;;;;;;;;;;;;;;;;;;4986938;28;19961;-85
2021/07/02 11:40:32;;;;;;;;;;;;;;;;;;4990708;28;19964;-85
2021/07/02 11:42:57;;;;;;;;;;;;;;;;;;4984216;28;20426;-85
2021/07/02 11:45:23;;;;;;;;;;;;;;;;;;4990289;28;19914;-85
2021/07/02 11:47:48;;;;;;;;;;;;;;;;;;4989655;28;19910;-85
2021/07/02 11:50:13;;;;;;;;;;;;;;;;;;4990515;28;19913;-86
2021/07/02 11:52:38;;;;;;;;;;;;;;;;;;4989922;28;20028;-85
2021/07/02 11:55:03;;;;;;;;;;;;;;;;;;4986490;28;20433;-85
2021/07/02 11:57:28;;;;;;;;;;;;;;;;;;4987860;28;19913;-85
2021/07/02 11:59:53;;;;;;;;;;;;;;;;;;4989729;28;20055;-84
2021/07/02 12:02:18;;;;;;;;;;;;;;;;;;4985379;28;20390;-85
2021/07/02 12:04:43;;;;;;;;;;;;;;;;;;4987333;28;19961;-85
2021/07/02 12:07:09;;;;;;;;;;;;;;;;;;4997358;23;19938;-48
2021/07/02 12:09:34;;;;;;;;;;;;;;;;;;4969705;28;20302;-48
2021/07/02 12:11:59;;;;;;;;;;;;;;;;;;4970095;28;20275;-46
2021/07/02 12:14:24;;;;;;;;;;;;;;;;;;4970947;28;19933;-47
2021/07/02 12:16:49;;;;;;;;;;;;;;;;;;4968675;28;19944;-49
2021/07/02 12:19:18;;;;;;;;;;;;;;;;;;4968660;28;19914;-48
2021/07/02 12:21:43;;;;;;;;;;;;;;;;;;5001743;23;19960;-48
2021/07/02 12:24:08;;;;;;;;;;;;;;;;;;4985485;28;19921;-48
2021/07/02 12:26:34;;;;;;;;;;;;;;;;;;4984925;28;19956;-48
2021/07/02 12:28:59;;;;;;;;;;;;;;;;;;4988736;28;19909;-48
2021/07/02 12:31:25;;;;;;;;;;;;;;;;;;4988678;28;19910;-47
2021/07/02 12:33:50;;;;;;;;;;;;;;;;;;4982975;28;19930;-47
2021/07/02 12:36:15;;;;;;;;;;;;;;;;;;4983974;28;20008;-48
2021/07/02 12:38:40;;;;;;;;;;;;;;;;;;4982692;28;19920;-48
2021/07/02 12:41:05;;;;;;;;;;;;;;;;;;4982859;28;19918;-48
2021/07/02 12:43:30;;;;;;;;;;;;;;;;;;4981717;28;19937;-48
2021/07/02 12:45:55;;;;;;;;;;;;;;;;;;4983958;28;20297;-49
2021/07/02 12:48:20;;;;;;;;;;;;;;;;;;4980469;28;19969;-48
2021/07/02 12:50:47;;;;;;;;;;;;;;;;;;4983603;28;20325;-48
2021/07/02 12:55:56;;;;;;;;;;;;;;;;;;4983774;28;19999;-48
2021/07/02 12:58:21;;;;;;;;;;;;;;;;;;4980911;28;20100;-49
2021/07/02 13:00:46;;;;;;;;;;;;;;;;;;4983513;28;19936;-48
2021/07/02 13:03:11;;;;;;;;;;;;;;;;;;4981214;28;20284;-48
2021/07/02 13:05:36;;;;;;;;;;;;;;;;;;4981214;28;19917;-47
2021/07/02 13:08:02;;;;;;;;;;;;;;;;;;4981578;28;19914;-47
2021/07/02 13:10:27;;;;;;;;;;;;;;;;;;4983830;28;19918;-47
2021/07/02 13:12:52;;;;;;;;;;;;;;;;;;4982919;28;20438;-48
2021/07/02 13:15:19;;;;;;;;;;;;;;;;;;4981720;28;19997;-48
2021/07/02 13:17:44;;;;;;;;;;;;;;;;;;4980773;28;19918;-49
2021/07/02 13:20:09;;;;;;;;;;;;;;;;;;4982815;28;19914;-49
2021/07/02 13:22:34;;;;;;;;;;;;;;;;;;4980591;28;19922;-50
2021/07/02 13:24:59;;;;;;;;;;;;;;;;;;4982873;28;20290;-49
2021/07/02 13:27:24;;;;;;;;;;;;;;;;;;4980509;28;19953;-48
2021/07/02 13:29:49;;;;;;;;;;;;;;;;;;4980714;28;19920;-48
2021/07/02 13:32:15;;;;;;;;;;;;;;;;;;4983219;28;19909;-48
2021/07/02 13:34:40;;;;;;;;;;;;;;;;;;4979957;28;19976;-48
2021/07/02 13:37:05;;;;;;;;;;;;;;;;;;4980683;28;19922;-48
2021/07/02 13:39:30;;;;;;;;;;;;;;;;;;4978192;28;20429;-48
2021/07/02 13:41:55;;;;;;;;;;;;;;;;;;4978640;28;20016;-49
2021/07/02 13:44:20;;;;;;;;;;;;;;;;;;4978547;28;19920;-48
2021/07/02 13:46:45;;;;;;;;;;;;;;;;;;4983657;28;19910;-47
2021/07/02 13:49:10;;;;;;;;;;;;;;;;;;4979852;28;19965;-48
2021/07/02 13:51:35;;;;;;;;;;;;;;;;;;4982470;28;19910;-48
2021/07/02 13:54:01;;;;;;;;;;;;;;;;;;4981003;28;19918;-48
2021/07/02 13:56:26;;;;;;;;;;;;;;;;;;4982828;28;19969;-48
2021/07/02 13:58:51;;;;;;;;;;;;;;;;;;4981931;28;19957;-47
2021/07/02 14:01:16;;;;;;;;;;;;;;;;;;4981987;28;19914;-49
2021/07/02 14:03:44;;;;;;;;;;;;;;;;;;4980760;28;20363;-48
2021/07/02 14:06:09;;;;;;;;;;;;;;;;;;4977454;28;19914;-48
2021/07/02 14:08:34;;;;;;;;;;;;;;;;;;4979978;28;19918;-48
2021/07/02 14:10:59;;;;;;;;;;;;;;;;;;4979200;28;19910;-48
2021/07/02 14:13:24;;;;;;;;;;;;;;;;;;4980582;28;20039;-48
2021/07/02 14:15:49;;;;;;;;;;;;;;;;;;4980795;28;19914;-49
2021/07/02 14:18:14;;;;;;;;;;;;;;;;;;4979364;28;20318;-48
2021/07/02 14:20:39;;;;;;;;;;;;;;;;;;4981139;28;20383;-49
2021/07/02 14:23:04;;;;;;;;;;;;;;;;;;4979923;28;19914;-47
2021/07/02 14:25:29;;;;;;;;;;;;;;;;;;4982365;28;19936;-49
2021/07/02 14:27:55;;;;;;;;;;;;;;;;;;4976593;28;20378;-47
2021/07/02 14:30:20;;;;;;;;;;;;;;;;;;4979468;28;19914;-48
2021/07/02 14:32:45;;;;;;;;;;;;;;;;;;4977639;28;20013;-50
2021/07/02 14:35:10;;;;;;;;;;;;;;;;;;4982568;28;19949;-48
2021/07/02 14:37:35;;;;;;;;;;;;;;;;;;4981319;28;19932;-49
2021/07/02 14:40:00;;;;;;;;;;;;;;;;;;4974999;28;20366;-49
2021/07/02 14:42:25;;;;;;;;;;;;;;;;;;4978168;28;19926;-48
2021/07/02 14:44:50;;;;;;;;;;;;;;;;;;4975779;28;20009;-48
2021/07/02 14:47:15;;;;;;;;;;;;;;;;;;4982179;28;19932;-47
2021/07/02 14:49:41;;;;;;;;;;;;;;;;;;4978115;28;19949;-48
2021/07/02 14:52:06;;;;;;;;;;;;;;;;;;4973840;28;19924;-48
2021/07/02 14:54:31;;;;;;;;;;;;;;;;;;4977003;28;19922;-49
2021/07/02 14:56:56;;;;;;;;;;;;;;;;;;4977564;28;19914;-49
2021/07/02 14:59:21;;;;;;;;;;;;;;;;;;4978055;28;19922;-48
2021/07/02 15:01:46;;;;;;;;;;;;;;;;;;4978544;28;20353;-47
2021/07/02 15:04:11;;;;;;;;;;;;;;;;;;4976958;28;20385;-48
2021/07/02 15:06:36;;;;;;;;;;;;;;;;;;4980106;28;19960;-48
2021/07/02 15:09:01;;;;;;;;;;;;;;;;;;4981183;28;19917;-47
2021/07/02 15:11:26;;;;;;;;;;;;;;;;;;4980981;28;20004;-49
2021/07/02 15:13:51;;;;;;;;;;;;;;;;;;4976237;28;19918;-48
2021/07/02 15:16:17;;;;;;;;;;;;;;;;;;4980665;28;19910;-47
2021/07/02 15:18:42;;;;;;;;;;;;;;;;;;4977457;28;19975;-49
2021/07/02 15:21:10;;;;;;;;;;;;;;;;;;4976504;28;19918;-48
2021/07/02 15:23:36;;;;;;;;;;;;;;;;;;4977090;28;19976;-49
2021/07/02 15:26:01;;;;;;;;;;;;;;;;;;4976893;28;19910;-48
2021/07/02 15:28:26;;;;;;;;;;;;;;;;;;4978571;28;19921;-48
2021/07/02 15:30:51;;;;;;;;;;;;;;;;;;4982101;28;19914;-48
2021/07/02 15:33:16;;;;;;;;;;;;;;;;;;4975674;28;19953;-49
2021/07/02 15:35:41;;;;;;;;;;;;;;;;;;4980415;28;20289;-49
2021/07/02 15:38:06;;;;;;;;;;;;;;;;;;4979256;28;19914;-48
2021/07/02 15:40:31;;;;;;;;;;;;;;;;;;4981635;28;19914;-47
2021/07/02 15:42:59;;;;;;;;;;;;;;;;;;4975092;28;19921;-49
2021/07/02 15:45:24;;;;;;;;;;;;;;;;;;4980062;28;19917;-47
2021/07/02 15:47:49;;;;;;;;;;;;;;;;;;4977752;28;19918;-48
2021/07/02 15:50:14;;;;;;;;;;;;;;;;;;4980313;28;19928;-48
2021/07/02 15:52:39;;;;;;;;;;;;;;;;;;4979836;28;19909;-48
2021/07/02 15:55:05;;;;;;;;;;;;;;;;;;4980686;28;20601;-49
2021/07/02 15:57:30;;;;;;;;;;;;;;;;;;4979096;28;19922;-47
2021/07/02 15:59:55;;;;;;;;;;;;;;;;;;4981481;28;20005;-48
2021/07/02 16:02:20;;;;;;;;;;;;;;;;;;4979769;28;19921;-47
2021/07/02 16:04:45;;;;;;;;;;;;;;;;;;4978152;28;19964;-48
2021/07/02 16:07:10;;;;;;;;;;;;;;;;;;4976288;28;20386;-47
2021/07/02 16:09:35;;;;;;;;;;;;;;;;;;4980850;28;19910;-48
2021/07/02 16:12:00;;;;;;;;;;;;;;;;;;4980360;28;19926;-48
2021/07/02 16:14:26;;;;;;;;;;;;;;;;;;4976439;28;19921;-49
2021/07/02 16:16:53;;;;;;;;;;;;;;;;;;4979008;28;20283;-48
2021/07/02 16:19:18;;;;;;;;;;;;;;;;;;4976124;28;19970;-48
2021/07/02 16:21:43;;;;;;;;;;;;;;;;;;4980215;28;20397;-49
2021/07/02 16:24:08;;;;;;;;;;;;;;;;;;4975901;28;19914;-47
2021/07/02 16:26:33;;;;;;;;;;;;;;;;;;4978503;28;19953;-49
2021/07/02 16:28:58;;;;;;;;;;;;;;;;;;4976156;28;19914;-48
2021/07/02 16:31:24;;;;;;;;;;;;;;;;;;4980370;28;19914;-47
2021/07/02 16:33:49;;;;;;;;;;;;;;;;;;4975111;28;19921;-49
2021/07/02 16:36:17;;;;;;;;;;;;;;;;;;4979392;28;19910;-48
2021/07/02 16:38:43;;;;;;;;;;;;;;;;;;4978675;28;19925;-49
2021/07/02 16:41:08;;;;;;;;;;;;;;;;;;4977824;28;19914;-48